Time;durP1;ratioP1;P1;durP2;ratioP2;P2;SDS_P1;SDS_P2;PMS_P1;PMS_P2;Temp;Humidity;BMP_temperature;BMP_pressure;BME280_temperature;BME280_humidity;BME280_pressure;Samples;Min_cycle;Max_cycle;Signal;HPM_P1;HPM_P2
2023/05/27 00:01:02;;;;;;;25.33;4.90;;;13.90;92.90;;;;;;5030245;28;20033;-74
2023/05/27 00:03:28;;;;;;;24.88;4.78;;;13.80;93.10;;;;;;5031212;28;20060;-74
2023/05/27 00:05:54;;;;;;;24.95;4.55;;;13.80;93.20;;;;;;5031751;28;20014;-74
2023/05/27 00:08:20;;;;;;;19.73;3.85;;;13.80;93.20;;;;;;5031341;28;20033;-74
2023/05/27 00:10:47;;;;;;;24.67;5.03;;;13.80;93.40;;;;;;5030944;28;20038;-74
2023/05/27 00:13:12;;;;;;;17.05;4.00;;;13.70;93.40;;;;;;5030756;28;20029;-75
2023/05/27 00:15:40;;;;;;;22.67;5.50;;;13.70;93.60;;;;;;5031169;28;20116;-74
2023/05/27 00:18:06;;;;;;;14.32;3.97;;;13.70;93.60;;;;;;5031461;28;20026;-75
2023/05/27 00:20:32;;;;;;;17.17;4.38;;;13.60;93.70;;;;;;5029782;28;20029;-74
2023/05/27 00:23:01;;;;;;;19.58;4.57;;;13.70;93.70;;;;;;5030911;28;20033;-74
2023/05/27 00:25:27;;;;;;;23.83;4.43;;;13.60;93.60;;;;;;5030794;28;20037;-74
2023/05/27 00:27:53;;;;;;;20.00;4.15;;;13.60;94.00;;;;;;5030775;28;20042;-75
2023/05/27 00:30:19;;;;;;;27.13;4.95;;;13.60;94.00;;;;;;5030653;28;20087;-76
2023/05/27 00:32:45;;;;;;;24.13;4.53;;;13.60;94.40;;;;;;5030469;28;20021;-75
2023/05/27 00:35:10;;;;;;;18.40;3.97;;;13.60;94.10;;;;;;5030658;28;20030;-75
2023/05/27 00:37:36;;;;;;;20.90;4.53;;;13.60;94.30;;;;;;5030531;28;20033;-74
2023/05/27 00:40:02;;;;;;;16.55;3.85;;;13.50;94.20;;;;;;5030583;28;20478;-74
2023/05/27 00:42:28;;;;;;;15.82;4.20;;;13.50;94.20;;;;;;5030549;28;20017;-74
2023/05/27 00:44:54;;;;;;;17.63;4.07;;;13.50;94.30;;;;;;5029947;28;20033;-74
2023/05/27 00:47:19;;;;;;;21.33;4.53;;;13.50;94.50;;;;;;5030313;28;20439;-74
2023/05/27 00:49:45;;;;;;;23.55;4.25;;;13.40;94.40;;;;;;5030524;28;20329;-75
2023/05/27 00:52:13;;;;;;;23.30;3.83;;;13.50;94.50;;;;;;5030434;28;20488;-75
2023/05/27 00:54:42;;;;;;;27.98;5.35;;;13.40;94.50;;;;;;5030378;28;20037;-75
2023/05/27 00:57:08;;;;;;;24.38;5.95;;;13.40;94.60;;;;;;5030743;28;20313;-74
2023/05/27 00:59:34;;;;;;;23.70;4.80;;;13.40;94.70;;;;;;5030792;28;20095;-75
2023/05/27 01:02:00;;;;;;;15.50;4.15;;;13.40;94.90;;;;;;5030569;28;20033;-75
2023/05/27 01:04:26;;;;;;;15.98;3.70;;;13.30;95.20;;;;;;5030364;28;20129;-74
2023/05/27 01:07:08;;;;;;;16.92;4.28;;;13.20;95.30;;;;;;5029121;28;20037;-74
2023/05/27 01:09:48;;;;;;;21.65;4.43;;;13.30;95.10;;;;;;5030373;28;20076;-75
2023/05/27 01:12:21;;;;;;;16.73;3.90;;;13.10;95.30;;;;;;5030584;28;20030;-74
2023/05/27 01:14:50;;;;;;;21.65;5.72;;;13.10;95.50;;;;;;5030326;28;20047;-76
2023/05/27 01:17:18;;;;;;;24.92;4.93;;;13.00;95.70;;;;;;5029039;28;20055;-76
2023/05/27 01:19:45;;;;;;;28.23;5.45;;;13.00;95.60;;;;;;5029085;28;20045;-75
2023/05/27 01:22:14;;;;;;;19.77;5.68;;;12.80;95.90;;;;;;5030065;28;20361;-75
2023/05/27 01:24:43;;;;;;;30.73;5.30;;;12.80;96.20;;;;;;5030148;28;20079;-75
2023/05/27 01:27:11;;;;;;;19.75;4.40;;;12.90;95.90;;;;;;5030413;28;20048;-74
2023/05/27 01:29:40;;;;;;;21.17;4.82;;;12.80;95.90;;;;;;5030149;28;20045;-75
2023/05/27 01:32:30;;;;;;;20.92;4.53;;;12.80;96.10;;;;;;5030270;28;20383;-75
2023/05/27 01:34:55;;;;;;;24.55;4.80;;;12.70;96.30;;;;;;5029760;28;20409;-75
2023/05/27 01:37:24;;;;;;;20.52;4.80;;;12.70;96.50;;;;;;5049886;28;20044;-75
2023/05/27 01:39:50;;;;;;;25.50;5.07;;;12.60;96.70;;;;;;5049749;28;20033;-75
2023/05/27 01:42:16;;;;;;;23.73;4.80;;;12.60;96.60;;;;;;5050400;28;20029;-75
2023/05/27 01:44:43;;;;;;;25.27;5.03;;;12.70;96.60;;;;;;5052059;28;20032;-75
2023/05/27 01:47:09;;;;;;;21.08;4.65;;;12.60;96.70;;;;;;5053479;28;20029;-75
2023/05/27 01:49:35;;;;;;;24.38;4.68;;;12.60;96.80;;;;;;5053380;28;20040;-75
2023/05/27 01:52:01;;;;;;;21.83;5.05;;;12.50;97.00;;;;;;5053240;28;20033;-75
2023/05/27 01:54:27;;;;;;;25.80;4.32;;;12.50;96.90;;;;;;5053680;28;20032;-76
2023/05/27 01:56:53;;;;;;;29.30;5.25;;;12.50;97.20;;;;;;5053893;28;20021;-75
2023/05/27 01:59:18;;;;;;;23.48;4.43;;;12.50;96.70;;;;;;5053639;28;20033;-75
2023/05/27 02:01:44;;;;;;;20.75;5.45;;;12.60;96.80;;;;;;5052637;28;20040;-75
2023/05/27 02:04:10;;;;;;;17.70;4.35;;;12.40;97.10;;;;;;5052273;28;20037;-75
2023/05/27 02:06:36;;;;;;;24.20;4.40;;;12.40;97.10;;;;;;5053134;28;20033;-75
2023/05/27 02:09:02;;;;;;;21.55;4.55;;;12.30;97.10;;;;;;5052746;28;20104;-75
2023/05/27 02:11:27;;;;;;;18.13;4.53;;;12.30;97.20;;;;;;5053270;28;20037;-75
2023/05/27 02:13:53;;;;;;;22.52;5.07;;;12.30;97.00;;;;;;5053050;28;20472;-75
2023/05/27 02:16:20;;;;;;;23.10;5.13;;;12.20;97.10;;;;;;5053117;28;20033;-74
2023/05/27 02:18:51;;;;;;;23.00;4.75;;;12.20;97.30;;;;;;5053072;28;20025;-74
2023/05/27 02:21:16;;;;;;;17.88;4.60;;;12.10;97.20;;;;;;5053787;28;20052;-75
2023/05/27 02:23:42;;;;;;;25.17;4.57;;;12.10;97.20;;;;;;5052915;28;20420;-75
2023/05/27 02:26:08;;;;;;;19.35;4.53;;;12.10;97.30;;;;;;5052798;28;20467;-74
2023/05/27 02:28:33;;;;;;;16.80;4.55;;;11.90;97.40;;;;;;5052625;28;20116;-75
2023/05/27 02:31:00;;;;;;;21.83;4.68;;;11.90;97.40;;;;;;5052585;28;20048;-74
2023/05/27 02:33:25;;;;;;;22.02;4.68;;;11.90;97.50;;;;;;5051521;28;20029;-73
2023/05/27 02:35:51;;;;;;;25.42;4.75;;;11.80;97.50;;;;;;5053242;28;20032;-74
2023/05/27 02:38:17;;;;;;;18.63;4.07;;;11.80;97.50;;;;;;5052917;28;20369;-75
2023/05/27 02:40:42;;;;;;;22.27;4.15;;;11.80;97.30;;;;;;5052863;28;20424;-76
2023/05/27 02:43:08;;;;;;;21.67;4.60;;;11.70;97.50;;;;;;5052677;28;20079;-75
2023/05/27 02:45:34;;;;;;;20.08;4.45;;;11.70;97.50;;;;;;5052401;28;20033;-75
2023/05/27 02:48:01;;;;;;;17.85;3.83;;;11.60;97.60;;;;;;5053004;28;20029;-76
2023/05/27 02:50:27;;;;;;;17.13;3.70;;;11.60;97.50;;;;;;5052249;28;20116;-75
2023/05/27 02:52:53;;;;;;;16.05;3.80;;;11.70;97.40;;;;;;5052425;28;20033;-74
2023/05/27 02:55:19;;;;;;;15.40;4.15;;;11.70;97.40;;;;;;5051732;28;20469;-75
2023/05/27 02:57:45;;;;;;;14.07;3.63;;;11.50;97.50;;;;;;5051315;28;20029;-75
2023/05/27 03:00:12;;;;;;;17.85;4.57;;;11.50;97.60;;;;;;5052577;28;20025;-75
2023/05/27 03:02:37;;;;;;;20.35;4.68;;;11.50;97.60;;;;;;5052354;28;20182;-75
2023/05/27 03:05:04;;;;;;;13.23;3.67;;;11.60;97.70;;;;;;5052442;28;20116;-74
2023/05/27 03:07:29;;;;;;;11.95;3.42;;;11.60;97.50;;;;;;5052131;28;20043;-74
2023/05/27 03:09:56;;;;;;;12.70;3.70;;;11.60;97.50;;;;;;5051664;28;20041;-75
2023/05/27 03:12:22;;;;;;;13.90;4.00;;;11.60;97.70;;;;;;5050872;28;20029;-74
2023/05/27 03:14:49;;;;;;;16.42;4.20;;;11.60;97.60;;;;;;5052378;28;20021;-74
2023/05/27 03:17:14;;;;;;;20.65;4.18;;;11.70;97.70;;;;;;5050799;28;20533;-74
2023/05/27 03:19:41;;;;;;;18.38;3.55;;;11.70;97.50;;;;;;5051798;28;20029;-74
2023/05/27 03:22:07;;;;;;;23.75;4.38;;;11.70;97.50;;;;;;5051829;28;20033;-74
2023/05/27 03:24:33;;;;;;;19.88;5.25;;;11.70;97.80;;;;;;5051730;28;20025;-74
2023/05/27 03:26:59;;;;;;;13.65;3.67;;;11.50;97.70;;;;;;5052062;28;20025;-75
2023/05/27 03:29:25;;;;;;;15.98;4.07;;;11.60;97.80;;;;;;5051504;28;20387;-75
2023/05/27 03:31:50;;;;;;;21.77;4.43;;;11.70;97.70;;;;;;5051728;28;20033;-74
2023/05/27 03:34:16;;;;;;;24.20;4.38;;;11.60;98.00;;;;;;5051498;28;20463;-74
2023/05/27 03:36:46;;;;;;;14.45;4.38;;;11.60;97.80;;;;;;5051425;28;20336;-74
2023/05/27 03:39:12;;;;;;;25.83;4.85;;;11.50;98.00;;;;;;5052185;28;20027;-74
2023/05/27 03:41:38;;;;;;;17.92;4.30;;;11.60;97.90;;;;;;5051618;28;20055;-77
2023/05/27 03:44:04;;;;;;;20.15;4.28;;;11.40;98.00;;;;;;5051604;28;20025;-74
2023/05/27 03:46:30;;;;;;;14.13;4.25;;;11.40;98.10;;;;;;5051404;28;20414;-75
2023/05/27 03:48:55;;;;;;;19.38;4.45;;;11.40;98.10;;;;;;5051296;28;20052;-73
2023/05/27 03:51:21;;;;;;;14.30;3.80;;;11.30;98.20;;;;;;5049991;28;20462;-75
2023/05/27 03:53:47;;;;;;;17.60;4.18;;;11.30;98.40;;;;;;5051582;28;20082;-75
2023/05/27 03:56:13;;;;;;;12.95;4.15;;;11.30;98.30;;;;;;5051023;28;20135;-74
2023/05/27 03:58:38;;;;;;;24.23;4.93;;;11.30;98.30;;;;;;5051044;28;20021;-74
2023/05/27 04:01:05;;;;;;;15.20;3.90;;;11.30;98.50;;;;;;5051264;28;20359;-74
2023/05/27 04:03:31;;;;;;;17.20;3.90;;;11.30;98.30;;;;;;5050063;28;20057;-74
2023/05/27 04:05:58;;;;;;;19.00;4.18;;;11.30;98.30;;;;;;5051072;28;20090;-74
2023/05/27 04:08:26;;;;;;;22.02;4.53;;;11.40;98.10;;;;;;5049270;28;20526;-73
2023/05/27 04:10:55;;;;;;;15.55;3.85;;;11.30;98.20;;;;;;5050984;28;20376;-74
2023/05/27 04:13:20;;;;;;;16.05;4.10;;;11.30;98.30;;;;;;5050790;28;20378;-74
2023/05/27 04:15:46;;;;;;;22.40;4.47;;;11.30;98.40;;;;;;5050879;28;20028;-74
2023/05/27 04:18:12;;;;;;;10.10;3.58;;;11.30;98.40;;;;;;5051228;28;20037;-74
2023/05/27 04:20:40;;;;;;;15.90;4.50;;;11.40;98.50;;;;;;5050718;28;20532;-73
2023/05/27 04:23:09;;;;;;;14.35;3.97;;;11.40;98.60;;;;;;5050619;28;20040;-73
2023/05/27 04:25:35;;;;;;;16.92;4.00;;;11.40;98.60;;;;;;5050627;28;20025;-73
2023/05/27 04:28:04;;;;;;;15.93;4.25;;;11.30;98.60;;;;;;5049280;28;20033;-74
2023/05/27 04:30:30;;;;;;;13.65;4.10;;;11.30;98.70;;;;;;5051093;28;20332;-74
2023/05/27 04:32:56;;;;;;;18.08;5.35;;;11.30;98.90;;;;;;5050988;28;20436;-74
2023/05/27 04:35:23;;;;;;;17.77;4.63;;;11.40;98.80;;;;;;5050558;28;20090;-74
2023/05/27 04:37:49;;;;;;;14.23;4.03;;;11.40;98.90;;;;;;5050417;28;20029;-74
2023/05/27 04:40:14;;;;;;;18.35;3.97;;;11.30;99.10;;;;;;5050396;28;20344;-74
2023/05/27 04:42:40;;;;;;;17.00;4.47;;;11.40;99.20;;;;;;5050391;28;20025;-74
2023/05/27 04:45:09;;;;;;;16.92;4.90;;;11.40;99.00;;;;;;5051176;28;20104;-75
2023/05/27 04:47:37;;;;;;;23.88;4.93;;;11.50;98.90;;;;;;5050711;28;20033;-75
2023/05/27 04:50:08;;;;;;;27.45;5.68;;;11.70;98.80;;;;;;5050557;28;20037;-75
2023/05/27 04:52:37;;;;;;;18.45;4.63;;;11.80;98.70;;;;;;5050327;28;20041;-75
2023/05/27 04:55:04;;;;;;;27.17;5.30;;;11.90;98.80;;;;;;5050508;28;20414;-74
2023/05/27 04:57:30;;;;;;;25.42;5.20;;;12.00;98.70;;;;;;5050556;28;20071;-75
2023/05/27 04:59:59;;;;;;;31.67;6.22;;;12.10;98.60;;;;;;5050879;28;20394;-76
2023/05/27 05:02:34;;;;;;;19.27;4.82;;;12.20;98.60;;;;;;5050401;28;20033;-76
2023/05/27 05:05:03;;;;;;;25.20;6.25;;;12.20;98.60;;;;;;5050089;28;20036;-75
2023/05/27 05:07:29;;;;;;;23.15;5.65;;;12.30;98.60;;;;;;5050223;28;20037;-77
2023/05/27 05:09:54;;;;;;;21.52;4.70;;;12.40;98.60;;;;;;5050180;28;20434;-76
2023/05/27 05:12:20;;;;;;;17.52;5.35;;;12.40;98.70;;;;;;5049887;28;20025;-75
2023/05/27 05:14:45;;;;;;;21.55;5.50;;;12.50;98.50;;;;;;5027810;28;20026;-77
2023/05/27 05:17:11;;;;;;;21.80;5.43;;;12.50;98.60;;;;;;5031570;28;20080;-77
2023/05/27 05:19:37;;;;;;;25.23;5.88;;;12.40;98.60;;;;;;5034985;28;20094;-77
2023/05/27 05:22:02;;;;;;;17.35;4.70;;;12.40;98.80;;;;;;5034189;28;20506;-74
2023/05/27 05:24:28;;;;;;;23.17;4.90;;;12.50;98.60;;;;;;5035190;28;20099;-76
2023/05/27 05:26:54;;;;;;;25.08;5.68;;;12.60;98.70;;;;;;5034470;28;20041;-74
2023/05/27 05:29:19;;;;;;;17.63;4.88;;;12.60;98.90;;;;;;5034783;28;20049;-74
2023/05/27 05:31:45;;;;;;;19.45;4.57;;;12.70;98.60;;;;;;5035167;28;20026;-76
2023/05/27 05:34:11;;;;;;;25.58;5.93;;;12.80;98.40;;;;;;5035209;28;20041;-76
2023/05/27 05:36:37;;;;;;;19.10;5.03;;;12.70;98.60;;;;;;5035027;28;20105;-77
2023/05/27 05:39:03;;;;;;;23.45;6.15;;;12.90;98.60;;;;;;5035526;28;20100;-76
2023/05/27 05:41:29;;;;;;;16.55;5.18;;;12.90;98.20;;;;;;5033902;28;20044;-77
2023/05/27 05:43:55;;;;;;;24.65;5.82;;;13.00;98.20;;;;;;5034471;28;20022;-75
2023/05/27 05:46:21;;;;;;;18.48;5.70;;;13.10;98.20;;;;;;5034220;28;20395;-76
2023/05/27 05:48:47;;;;;;;24.88;5.72;;;13.10;98.10;;;;;;5032473;28;20107;-78
2023/05/27 05:51:13;;;;;;;19.75;5.68;;;13.30;98.00;;;;;;5034056;28;20099;-73
2023/05/27 05:53:38;;;;;;;25.23;5.65;;;13.30;98.00;;;;;;5032571;28;20033;-77
2023/05/27 05:56:04;;;;;;;46.67;14.23;;;13.30;98.10;;;;;;5033794;28;20512;-75
2023/05/27 05:58:30;;;;;;;24.50;6.43;;;13.40;97.90;;;;;;5032297;28;20034;-75
2023/05/27 06:00:56;;;;;;;19.20;5.18;;;13.50;97.90;;;;;;5033510;28;20025;-74
2023/05/27 06:03:21;;;;;;;21.27;6.05;;;13.50;97.90;;;;;;5032813;28;20033;-76
2023/05/27 06:05:47;;;;;;;31.52;5.70;;;13.70;98.00;;;;;;5033978;28;20018;-72
2023/05/27 06:08:13;;;;;;;19.52;5.10;;;13.80;97.80;;;;;;5033270;28;20056;-74
2023/05/27 06:10:38;;;;;;;27.08;5.78;;;14.00;97.70;;;;;;5032020;28;20533;-75
2023/05/27 06:13:05;;;;;;;21.35;4.43;;;14.10;97.50;;;;;;5033513;28;20095;-73
2023/05/27 06:15:31;;;;;;;20.08;5.28;;;14.10;97.60;;;;;;5033261;28;20056;-75
2023/05/27 06:17:57;;;;;;;21.88;5.38;;;14.20;97.50;;;;;;5033499;28;20164;-73
2023/05/27 06:20:23;;;;;;;32.03;5.78;;;14.30;97.30;;;;;;5033591;28;20527;-72
2023/05/27 06:22:49;;;;;;;21.23;5.90;;;14.30;97.30;;;;;;5033326;28;20357;-72
2023/05/27 06:25:15;;;;;;;21.30;5.35;;;14.30;97.20;;;;;;5033340;28;20036;-74
2023/05/27 06:27:41;;;;;;;22.13;5.75;;;14.40;97.30;;;;;;5032866;28;20030;-74
2023/05/27 06:30:07;;;;;;;22.95;5.50;;;14.50;97.20;;;;;;5032412;28;20045;-73
2023/05/27 06:32:33;;;;;;;21.75;5.65;;;14.60;97.00;;;;;;5032952;28;20057;-78
2023/05/27 06:34:59;;;;;;;23.48;5.53;;;14.60;96.90;;;;;;5033119;28;20064;-79
2023/05/27 06:37:24;;;;;;;21.00;5.63;;;14.80;96.70;;;;;;5033048;28;20460;-80
2023/05/27 06:39:50;;;;;;;33.10;6.10;;;14.70;96.60;;;;;;5032927;28;20072;-79
2023/05/27 06:42:16;;;;;;;20.33;5.60;;;14.90;96.50;;;;;;5033811;28;20025;-80
2023/05/27 06:44:42;;;;;;;22.95;5.30;;;14.90;96.10;;;;;;5032917;28;20037;-76
2023/05/27 06:47:07;;;;;;;24.58;5.10;;;14.90;96.20;;;;;;5031833;28;20030;-79
2023/05/27 06:49:33;;;;;;;21.27;4.55;;;15.00;96.20;;;;;;5032896;28;20111;-83
2023/05/27 06:51:59;;;;;;;25.73;5.15;;;15.20;96.00;;;;;;5032199;28;20391;-77
2023/05/27 06:54:25;;;;;;;17.38;5.10;;;15.30;95.70;;;;;;5031460;28;20291;-79
2023/05/27 06:56:50;;;;;;;15.35;4.97;;;15.30;95.70;;;;;;5033311;28;20022;-75
2023/05/27 06:59:16;;;;;;;28.73;5.05;;;15.20;95.70;;;;;;5033359;28;20041;-78
2023/05/27 07:01:42;;;;;;;23.17;4.82;;;15.20;95.50;;;;;;5031489;28;20026;-77
2023/05/27 07:04:07;;;;;;;21.38;4.70;;;15.50;95.40;;;;;;5032265;28;20074;-77
2023/05/27 07:06:33;;;;;;;24.08;5.07;;;15.60;94.70;;;;;;5032414;28;20033;-79
2023/05/27 07:08:59;;;;;;;23.42;5.47;;;15.80;94.80;;;;;;5032930;28;20666;-78
2023/05/27 07:11:26;;;;;;;23.05;5.88;;;16.00;94.60;;;;;;5030128;28;20041;-74
2023/05/27 07:13:51;;;;;;;17.17;4.60;;;16.10;94.20;;;;;;5033117;28;20046;-76
2023/05/27 07:16:17;;;;;;;18.48;4.63;;;16.10;94.00;;;;;;5033259;28;20327;-78
2023/05/27 07:18:43;;;;;;;17.83;4.90;;;16.20;93.90;;;;;;5033230;28;20428;-77
2023/05/27 07:21:08;;;;;;;20.20;3.97;;;16.30;93.80;;;;;;5033508;28;20053;-77
2023/05/27 07:23:34;;;;;;;17.08;4.25;;;16.30;93.70;;;;;;5033122;28;20039;-79
2023/05/27 07:26:00;;;;;;;16.90;4.97;;;16.40;93.70;;;;;;5032965;28;20529;-77
2023/05/27 07:28:25;;;;;;;17.60;4.57;;;16.50;93.30;;;;;;5032852;28;20107;-76
2023/05/27 07:30:51;;;;;;;22.02;4.53;;;16.50;93.00;;;;;;5032876;28;20033;-78
2023/05/27 07:33:17;;;;;;;16.92;4.30;;;16.40;93.10;;;;;;5033107;28;20494;-76
2023/05/27 07:35:43;;;;;;;19.67;4.05;;;16.40;92.60;;;;;;5032193;28;20391;-76
2023/05/27 07:38:10;;;;;;;16.75;3.67;;;16.50;92.70;;;;;;5032808;28;20033;-77
2023/05/27 07:40:35;;;;;;;22.15;4.30;;;16.60;92.30;;;;;;5032617;28;20136;-78
2023/05/27 07:43:01;;;;;;;19.45;3.70;;;16.70;92.10;;;;;;5032834;28;20535;-75
2023/05/27 07:45:30;;;;;;;9.27;3.58;;;16.70;92.10;;;;;;5032523;28;20025;-78
2023/05/27 07:47:55;;;;;;;35.00;5.40;;;16.80;91.60;;;;;;5033322;28;20021;-75
2023/05/27 07:50:21;;;;;;;17.30;3.72;;;16.90;91.60;;;;;;5032786;28;20057;-79
2023/05/27 07:52:47;;;;;;;15.70;3.95;;;17.20;91.70;;;;;;5031575;28;20123;-78
2023/05/27 07:55:13;;;;;;;18.63;4.22;;;17.40;91.00;;;;;;5032386;28;20471;-76
2023/05/27 07:57:38;;;;;;;13.75;3.70;;;17.70;91.30;;;;;;5032453;28;20100;-77
2023/05/27 08:00:06;;;;;;;18.13;3.65;;;17.70;90.20;;;;;;5032862;28;20439;-80
2023/05/27 08:02:31;;;;;;;20.20;4.38;;;17.90;90.40;;;;;;5031978;28;20037;-76
2023/05/27 08:04:57;;;;;;;12.85;3.17;;;18.20;90.40;;;;;;5032722;28;20044;-76
2023/05/27 08:07:23;;;;;;;10.70;3.53;;;18.50;90.30;;;;;;5032336;28;20413;-76
2023/05/27 08:09:48;;;;;;;19.33;3.65;;;18.80;89.30;;;;;;5030980;28;20349;-76
2023/05/27 08:12:14;;;;;;;18.00;3.58;;;18.90;87.80;;;;;;5032160;28;20021;-74
2023/05/27 08:14:43;;;;;;;17.98;3.92;;;19.10;87.10;;;;;;5032265;28;20047;-77
2023/05/27 08:17:09;;;;;;;13.15;3.00;;;19.30;87.30;;;;;;5032175;28;20412;-77
2023/05/27 08:19:35;;;;;;;12.00;3.25;;;19.90;86.30;;;;;;5031900;28;20021;-75
2023/05/27 08:22:02;;;;;;;11.82;4.03;;;20.50;87.70;;;;;;5031045;28;20123;-76
2023/05/27 08:24:30;;;;;;;12.48;3.40;;;21.00;82.60;;;;;;5031859;28;20025;-77
2023/05/27 08:26:56;;;;;;;16.48;3.50;;;21.40;82.80;;;;;;5032024;28;20018;-77
2023/05/27 08:29:22;;;;;;;12.77;3.88;;;21.80;82.10;;;;;;5031814;28;20033;-77
2023/05/27 08:31:51;;;;;;;7.70;2.53;;;22.90;78.20;;;;;;5032018;28;20515;-76
2023/05/27 08:34:17;;;;;;;12.48;3.13;;;23.90;78.20;;;;;;5031755;28;20445;-76
2023/05/27 08:36:42;;;;;;;13.68;3.30;;;24.80;72.40;;;;;;5031983;28;20589;-77
2023/05/27 08:39:09;;;;;;;9.88;3.03;;;25.20;70.00;;;;;;5032257;28;20044;-79
2023/05/27 08:41:36;;;;;;;9.50;2.97;;;25.90;69.40;;;;;;5031302;28;20030;-78
2023/05/27 08:44:02;;;;;;;10.38;2.83;;;26.80;65.50;;;;;;5030663;28;20056;-77
2023/05/27 08:46:28;;;;;;;8.45;2.17;;;27.50;64.30;;;;;;5030866;28;20110;-78
2023/05/27 08:48:55;;;;;;;16.38;4.63;;;27.90;61.20;;;;;;5030541;28;20044;-77
2023/05/27 08:51:21;;;;;;;13.82;3.60;;;27.90;57.90;;;;;;5030453;28;20105;-75
2023/05/27 08:53:48;;;;;;;10.75;2.95;;;28.10;57.60;;;;;;5030986;28;20109;-78
2023/05/27 08:56:18;;;;;;;9.32;3.03;;;28.30;57.90;;;;;;5029230;28;20063;-78
2023/05/27 08:58:44;;;;;;;10.52;2.95;;;28.80;56.70;;;;;;5030769;28;20034;-78
2023/05/27 09:01:10;;;;;;;9.65;2.88;;;29.20;57.20;;;;;;5030536;28;20037;-76
2023/05/27 09:03:36;;;;;;;12.27;3.00;;;29.60;55.50;;;;;;5030386;28;20117;-79
2023/05/27 09:06:04;;;;;;;10.50;3.22;;;29.80;54.90;;;;;;5031262;28;20033;-78
2023/05/27 09:08:31;;;;;;;14.65;3.78;;;29.80;53.90;;;;;;5029881;28;20360;-78
2023/05/27 09:10:57;;;;;;;12.32;3.08;;;29.60;52.90;;;;;;5030698;28;20033;-76
2023/05/27 09:13:28;;;;;;;10.38;3.50;;;29.40;53.80;;;;;;5030473;28;20092;-76
2023/05/27 09:16:05;;;;;;;11.82;2.90;;;29.80;52.80;;;;;;5030533;28;20063;-77
2023/05/27 09:18:34;;;;;;;9.35;3.15;;;29.40;51.80;;;;;;5030235;28;20393;-76
2023/05/27 09:21:00;;;;;;;10.07;2.92;;;28.60;52.10;;;;;;5030735;28;20083;-78
2023/05/27 09:23:26;;;;;;;10.68;2.92;;;28.40;51.60;;;;;;5030224;28;20030;-75
2023/05/27 09:25:52;;;;;;;9.60;2.97;;;28.40;50.40;;;;;;5030260;28;20025;-75
2023/05/27 09:28:25;;;;;;;14.65;3.22;;;27.80;51.10;;;;;;5029294;28;20452;-76
2023/05/27 09:31:05;;;;;;;16.98;3.50;;;28.40;52.00;;;;;;5029532;28;20484;-76
2023/05/27 09:33:32;;;;;;;12.63;3.67;;;28.70;52.40;;;;;;5029997;28;20114;-76
2023/05/27 09:36:02;;;;;;;14.93;3.75;;;27.30;53.50;;;;;;5030131;28;20393;-75
2023/05/27 09:38:32;;;;;;;14.70;3.63;;;27.10;53.90;;;;;;5030457;28;20037;-75
2023/05/27 09:41:01;;;;;;;13.55;3.13;;;26.30;54.80;;;;;;5012363;28;20121;-76
2023/05/27 09:43:28;;;;;;;11.60;3.35;;;26.00;55.10;;;;;;5029044;28;20041;-76
2023/05/27 09:46:01;;;;;;;17.45;3.50;;;26.30;55.60;;;;;;5012156;28;20049;-78
2023/05/27 09:48:30;;;;;;;11.82;2.97;;;25.40;55.30;;;;;;5029477;28;20079;-75
2023/05/27 09:50:57;;;;;;;12.45;3.90;;;24.80;56.60;;;;;;5030739;28;20348;-78
2023/05/27 09:53:24;;;;;;;14.27;3.30;;;25.00;57.00;;;;;;5030511;28;20029;-77
2023/05/27 09:55:52;;;;;;;12.15;3.55;;;25.00;57.10;;;;;;5028989;28;20033;-76
2023/05/27 09:58:18;;;;;;;14.63;3.33;;;24.80;57.60;;;;;;5030052;28;20038;-77
2023/05/27 10:00:47;;;;;;;15.20;3.40;;;24.00;57.80;;;;;;5030003;28;20026;-76
2023/05/27 10:03:16;;;;;;;9.52;2.90;;;23.60;58.70;;;;;;5030642;28;20034;-79
2023/05/27 10:05:44;;;;;;;12.52;3.38;;;23.80;59.20;;;;;;5032003;28;20523;-78
2023/05/27 10:08:12;;;;;;;11.15;3.15;;;24.10;58.50;;;;;;5033364;28;20030;-73
2023/05/27 10:10:38;;;;;;;19.40;6.85;;;24.20;58.00;;;;;;5033391;28;20042;-77
2023/05/27 10:13:04;;;;;;;10.82;3.72;;;23.80;57.60;;;;;;5033357;28;20045;-76
2023/05/27 10:15:32;;;;;;;16.48;3.65;;;23.80;58.50;;;;;;5033071;28;20026;-74
2023/05/27 10:18:10;;;;;;;16.00;3.97;;;23.50;58.80;;;;;;5033666;28;20513;-75
2023/05/27 10:20:42;;;;;;;8.60;2.92;;;23.40;59.40;;;;;;5033429;28;20109;-76
2023/05/27 10:23:13;;;;;;;10.68;2.67;;;23.60;59.30;;;;;;5032808;28;20035;-76
2023/05/27 10:25:40;;;;;;;9.65;2.80;;;23.80;58.40;;;;;;5032877;28;20053;-76
2023/05/27 10:28:07;;;;;;;8.80;2.80;;;24.00;58.20;;;;;;5032630;28;20067;-74
2023/05/27 10:30:44;;;;;;;10.10;3.10;;;23.70;56.80;;;;;;5032806;28;20031;-75
2023/05/27 10:33:10;;;;;;;11.93;3.00;;;23.40;57.00;;;;;;5033445;28;20462;-75
2023/05/27 10:35:41;;;;;;;12.88;2.97;;;23.40;58.60;;;;;;5032898;28;20124;-77
2023/05/27 10:38:17;;;;;;;14.10;2.97;;;23.70;58.40;;;;;;5032813;28;20371;-75
2023/05/27 10:40:47;;;;;;;13.30;3.05;;;23.70;57.60;;;;;;5032583;28;20033;-76
2023/05/27 10:43:17;;;;;;;12.43;3.80;;;23.20;57.90;;;;;;5033189;28;20419;-76
2023/05/27 10:45:44;;;;;;;11.40;3.17;;;23.40;58.50;;;;;;5033037;28;20030;-75
2023/05/27 10:48:19;;;;;;;14.15;2.90;;;23.60;58.70;;;;;;5033258;28;20314;-75
2023/05/27 10:50:52;;;;;;;12.00;2.95;;;23.60;58.50;;;;;;5032341;28;20041;-74
2023/05/27 10:53:20;;;;;;;13.70;3.42;;;23.70;58.00;;;;;;5032822;28;20034;-74
2023/05/27 10:55:49;;;;;;;16.73;4.38;;;23.70;58.80;;;;;;5032897;28;20037;-78
2023/05/27 10:58:16;;;;;;;12.20;3.17;;;23.70;58.60;;;;;;5032677;28;20025;-75
2023/05/27 11:00:42;;;;;;;13.07;3.35;;;23.70;57.90;;;;;;5032463;28;20030;-77
2023/05/27 11:03:44;;;;;;;15.32;6.22;;;23.70;59.00;;;;;;5032836;28;20032;-75
2023/05/27 11:06:11;;;;;;;8.18;2.85;;;23.50;59.10;;;;;;5042348;28;20040;-77
2023/05/27 11:08:40;;;;;;;13.40;4.20;;;23.50;59.10;;;;;;5052159;28;20029;-77
2023/05/27 11:11:08;;;;;;;12.65;3.60;;;23.40;59.10;;;;;;5037176;28;20034;-75
2023/05/27 11:13:40;;;;;;;13.73;3.55;;;23.50;59.10;;;;;;5032277;28;20048;-74
2023/05/27 11:16:06;;;;;;;12.88;3.47;;;23.50;58.10;;;;;;5031810;28;20036;-77
2023/05/27 11:18:40;;;;;;;12.38;3.30;;;23.50;58.80;;;;;;5032112;28;20045;-78
2023/05/27 11:21:07;;;;;;;14.25;3.33;;;23.40;59.10;;;;;;5032440;28;20104;-76
2023/05/27 11:23:40;;;;;;;9.50;3.53;;;23.40;59.80;;;;;;5031940;28;20025;-78
2023/05/27 11:26:22;;;;;;;11.70;3.45;;;23.40;59.50;;;;;;5032045;28;20045;-78
2023/05/27 11:28:53;;;;;;;8.93;2.85;;;23.50;59.50;;;;;;5032388;28;20037;-76
2023/05/27 11:31:28;;;;;;;11.15;3.20;;;23.50;58.90;;;;;;5032341;28;20045;-76
2023/05/27 11:33:54;;;;;;;12.32;5.40;;;23.30;58.10;;;;;;5032626;28;20065;-76
2023/05/27 11:36:23;;;;;;;9.63;3.10;;;23.30;58.80;;;;;;5033548;28;20103;-74
2023/05/27 11:38:59;;;;;;;11.15;3.35;;;23.50;58.00;;;;;;5032673;28;20352;-76
2023/05/27 11:41:30;;;;;;;10.50;3.47;;;23.20;57.50;;;;;;5031834;28;20029;-73
2023/05/27 11:43:57;;;;;;;12.90;3.17;;;23.10;57.70;;;;;;5031749;28;20088;-73
2023/05/27 11:46:33;;;;;;;14.45;3.67;;;23.10;58.50;;;;;;5031815;28;20479;-74
2023/05/27 11:48:59;;;;;;;10.20;3.15;;;23.10;57.80;;;;;;5031692;28;20071;-77
2023/05/27 11:51:29;;;;;;;17.48;5.13;;;23.00;58.40;;;;;;5031534;28;20021;-74
2023/05/27 11:54:00;;;;;;;10.40;3.42;;;23.00;58.40;;;;;;5032228;28;20026;-79
2023/05/27 11:56:26;;;;;;;13.30;3.10;;;23.20;58.80;;;;;;5032801;28;20474;-78
2023/05/27 11:58:52;;;;;;;13.20;3.10;;;23.40;58.70;;;;;;5032488;28;20033;-78
2023/05/27 12:01:17;;;;;;;8.73;2.95;;;23.40;58.30;;;;;;5032964;28;20033;-79
2023/05/27 12:03:43;;;;;;;9.75;3.13;;;23.40;58.00;;;;;;5032433;28;20029;-78
2023/05/27 12:06:10;;;;;;;12.95;3.35;;;23.40;57.90;;;;;;5033015;28;20014;-73
2023/05/27 12:08:36;;;;;;;13.85;4.78;;;23.20;58.30;;;;;;5031528;28;20060;-78
2023/05/27 12:11:02;;;;;;;10.57;2.83;;;23.10;58.30;;;;;;5030724;28;20428;-76
2023/05/27 12:13:29;;;;;;;9.48;3.38;;;23.10;58.30;;;;;;5030723;28;20311;-77
2023/05/27 12:15:55;;;;;;;8.25;3.10;;;23.10;58.30;;;;;;5031585;28;20116;-76
2023/05/27 12:18:21;;;;;;;7.43;3.25;;;23.10;58.10;;;;;;5031138;28;20129;-74
2023/05/27 12:20:46;;;;;;;13.40;3.70;;;23.10;57.70;;;;;;5032864;28;20240;-76
2023/05/27 12:23:12;;;;;;;13.02;3.28;;;23.10;57.50;;;;;;5031397;28;20041;-74
2023/05/27 12:25:38;;;;;;;8.30;3.05;;;22.90;57.70;;;;;;5030799;28;20044;-74
2023/05/27 12:28:07;;;;;;;10.88;3.33;;;22.90;57.90;;;;;;5028737;28;20037;-75
2023/05/27 12:30:33;;;;;;;14.70;2.80;;;22.70;58.40;;;;;;5031072;28;20333;-74
2023/05/27 12:32:59;;;;;;;9.90;3.15;;;22.80;58.80;;;;;;5031073;28;20014;-75
2023/05/27 12:35:25;;;;;;;9.93;3.08;;;22.80;58.90;;;;;;5030773;28;20503;-75
2023/05/27 12:37:52;;;;;;;11.77;3.35;;;22.90;58.90;;;;;;5030699;28;20025;-75